Norwegian Epic — C6XP7 — position and weather

sailwx.info

Track history (hours):
 
Tides and Currents Weather Stations Pressure Air Temp Water Temp Dewpoint Dewpoint Depression Visibility Wind Speed Wind Dir Waves Ship Positions

Norwegian Epic

Last reported at 2016-Jul-01 13:33 UTC. Time now 2016-Jul-01 13:41 UTC.
Position N 43°32' E 007°01'.

Length 329 m; draft 9.2 m.

Type: Passenger vessel. MMSI: 311018500.

Date/timePositionNaut miles runAvg speedWind from/ knotsBaromVisibWave heightAir tempDewpointWater temp
2016-Jul-01 13:33N 43°32' E 007°01'0 0.2
2016-Jul-01 12:31N 43°32' E 007°01'1 0.6
2016-Jul-01 11:33N 43°33' E 007°01'0 0.1
2016-Jul-01 10:33N 43°33' E 007°01'1 0.6
2016-Jul-01 09:30N 43°32' E 007°01'0 0.1
2016-Jul-01 08:32N 43°32' E 007°01'0 0.1
2016-Jul-01 07:26N 43°32' E 007°01'0 0.1
2016-Jul-01 06:33N 43°32' E 007°01'0 0.1
2016-Jul-01 05:33N 43°32' E 007°01'5 5.4
2016-Jul-01 04:33N 43°28' E 007°05'1211.8
2016-Jul-01 03:33N 43°28' E 007°22'1312.5
2016-Jul-01 02:33N 43°29' E 007°39'2813.1
2016-Jul-01 00:23N 43°30' E 008°18'1113.3
2016-Jun-30 23:33N 43°31' E 008°33'1313.1
2016-Jun-30 22:33N 43°31' E 008°51'1312.9
2016-Jun-30 21:33N 43°31' E 009°09'1313.0
2016-Jun-30 20:33N 43°31' E 009°27'1312.7
2016-Jun-30 19:33N 43°31' E 009°44'1212.3
2016-Jun-30 18:34N 43°31' E 010°01'1111.4
2016-Jun-30 17:33N 43°32' E 010°17'1 1.4
2016-Jun-30 16:32N 43°34' E 010°18'0 0.0
2016-Jun-30 15:33N 43°34' E 010°18'0 0.0
2016-Jun-30 14:34N 43°34' E 010°18'0 0.0
2016-Jun-30 13:28N 43°34' E 010°18'0 0.0
2016-Jun-30 12:32N 43°34' E 010°18'0 0.0
2016-Jun-30 11:33N 43°34' E 010°18'0 0.0
2016-Jun-30 10:33N 43°34' E 010°18'0 0.0
2016-Jun-30 09:31N 43°34' E 010°18'0 0.0
2016-Jun-30 08:32N 43°34' E 010°18'0 0.0
2016-Jun-30 07:32N 43°34' E 010°18'0 0.0
2016-Jun-30 06:33N 43°34' E 010°18'0 0.0
2016-Jun-30 05:31N 43°34' E 010°18'1 0.7
2016-Jun-30 04:33N 43°33' E 010°17'7 7.4
2016-Jun-30 03:33N 43°27' E 010°12'1312.6
2016-Jun-30 02:33N 43°15' E 010°08'1312.9
2016-Jun-30 01:33N 43°02' E 010°03'1515.4
2016-Jun-30 00:33N 42°47' E 009°58'1716.0
2016-Jun-29 23:28N 42°30' E 009°55'2714.1
2016-Jun-29 21:33N 42°10' E 010°19'1816.2
2016-Jun-29 20:27N 42°03' E 010°42'1616.7
2016-Jun-29 19:31N 41°58' E 011°01'1616.6
2016-Jun-29 18:32N 42°01' E 011°23'1717.0
2016-Jun-29 17:33N 42°07' E 011°44'2 1.0
2016-Jun-29 15:26N 42°06' E 011°47'0 0.0
2016-Jun-29 14:30N 42°06' E 011°47'0 0.0
2016-Jun-29 13:24N 42°06' E 011°47'0 0.0
2016-Jun-29 11:11N 42°06' E 011°47'0 0.0
2016-Jun-29 10:32N 42°06' E 011°47'2 0.3
2016-Jun-29 03:07N 42°06' E 011°44'2414.5
2016-Jun-29 01:27N 41°44' E 011°57'5317.7
2016-Jun-28 22:26N 40°58' E 012°33'1517.3
2016-Jun-28 21:33N 40°48' E 012°48'1717.4
2016-Jun-28 20:34N 40°43' E 013°10'1817.4
2016-Jun-28 19:32N 40°40' E 013°33'1717.4
2016-Jun-28 18:34N 40°38' E 013°55'1716.8
2016-Jun-28 17:33N 40°47' E 014°15'4 3.6
2016-Jun-28 16:31N 40°50' E 014°16'0 0.0
2016-Jun-28 15:29N 40°50' E 014°16'0 0.0
2016-Jun-28 04:19N 40°50' E 014°16'6 7.4
2016-Jun-28 03:33N 40°45' E 014°13'1211.7
2016-Jun-28 02:33N 40°38' E 014°00'1512.5
2016-Jun-28 01:22N 40°39' E 013°41'1213.0
2016-Jun-28 00:29N 40°40' E 013°26'43216.0
2016-Jun-26 21:33N 41°16' E 003°56'1717.6
2016-Jun-26 20:33N 41°16' E 003°33'1717.2
2016-Jun-26 19:33N 41°16' E 003°10'1717.1
2016-Jun-26 18:33N 41°16' E 002°47'1717.0
2016-Jun-26 17:33N 41°16' E 002°25'1212.1
2016-Jun-26 16:33N 41°21' E 002°10'1 0.7
2016-Jun-26 14:25N 41°22' E 002°11'0 0.0
2016-Jun-26 11:27N 41°22' E 002°11'0 0.0
2016-Jun-26 10:27N 41°22' E 002°11'0 0.0
2016-Jun-26 09:22N 41°22' E 002°11'0 0.1
2016-Jun-26 08:33N 41°22' E 002°11'0 0.1
2016-Jun-26 07:33N 41°22' E 002°11'0 0.0
2016-Jun-26 06:33N 41°22' E 002°11'0 0.0
2016-Jun-26 05:31N 41°22' E 002°11'0 0.0
2016-Jun-26 04:31N 41°22' E 002°11'0 0.0
2016-Jun-26 03:33N 41°22' E 002°11'0 0.1
2016-Jun-26 02:33N 41°22' E 002°11'6 6.1
2016-Jun-26 01:33N 41°18' E 002°17'1515.1
2016-Jun-26 00:33N 41°25' E 002°35'1515.4
2016-Jun-25 23:33N 41°32' E 002°53'1716.6
2016-Jun-25 22:33N 41°42' E 003°11'1616.5
2016-Jun-25 21:33N 41°54' E 003°27'1817.0
2016-Jun-25 20:31N 42°06' E 003°43'118 5.4
2016-Jun-24 22:29N 42°49' E 006°12'1212.5
2016-Jun-24 21:33N 42°46' E 006°27'1111.4
2016-Jun-24 20:33N 42°50' E 006°42'1312.7
2016-Jun-24 19:33N 42°60' E 006°53'1212.2
2016-Jun-24 18:33N 43°10' E 007°00'1312.8
2016-Jun-24 17:34N 43°23' E 007°00'9 8.9
2016-Jun-24 16:33N 43°32' E 007°01'1 0.5
2016-Jun-24 15:31N 43°33' E 007°01'0 0.2
2016-Jun-24 14:33N 43°32' E 007°01'0 0.2
2016-Jun-24 13:33N 43°32' E 007°01'0 0.1
2016-Jun-24 12:31N 43°32' E 007°01'0 0.0
2016-Jun-24 11:32N 43°32' E 007°01'0 0.0
2016-Jun-24 10:29N 43°32' E 007°01'0 0.0
2016-Jun-24 09:33N 43°32' E 007°01'0 0.1
2016-Jun-24 08:29N 43°32' E 007°01'0 0.1
2016-Jun-24 07:31N 43°32' E 007°01'5 1.7
2016-Jun-24 04:34N 43°28' E 007°05'1111.3
2016-Jun-24 03:34N 43°28' E 007°20'1212.2
2016-Jun-24 02:33N 43°29' E 007°37'1212.1
2016-Jun-24 01:34N 43°29' E 007°54'1212.3
2016-Jun-24 00:34N 43°29' E 008°11'1212.2
2016-Jun-23 23:33N 43°30' E 008°28'1212.2
2016-Jun-23 22:34N 43°30' E 008°44'1212.3
2016-Jun-23 21:34N 43°30' E 009°01'1212.1
2016-Jun-23 20:34N 43°31' E 009°18'1313.4
2016-Jun-23 19:33N 43°31' E 009°36'1616.1
2016-Jun-23 18:33N 43°31' E 009°59'1313.2
2016-Jun-23 17:34N 43°32' E 010°17'1 1.1
2016-Jun-23 16:32N 43°33' E 010°18'0 0.0
2016-Jun-23 15:27N 43°33' E 010°18'0 0.0
2016-Jun-23 14:31N 43°33' E 010°18'0 0.0
2016-Jun-23 13:31N 43°33' E 010°18'0 0.0
2016-Jun-23 12:32N 43°33' E 010°18'0 0.0
2016-Jun-23 11:33N 43°33' E 010°18'0 0.0
2016-Jun-23 10:33N 43°33' E 010°18'0 0.0
2016-Jun-23 09:31N 43°33' E 010°18'0 0.0
2016-Jun-23 08:32N 43°33' E 010°18'0 0.0
2016-Jun-23 07:32N 43°33' E 010°18'0 0.0
2016-Jun-23 05:28N 43°33' E 010°18'0 0.2
2016-Jun-23 04:33N 43°33' E 010°17'9 9.1
2016-Jun-23 03:33N 43°25' E 010°12'1514.8
2016-Jun-23 02:33N 43°11' E 010°05'1615.7
2016-Jun-23 01:33N 42°56' E 010°00'1615.6
2016-Jun-23 00:33N 42°41' E 009°54'1616.2
2016-Jun-22 23:33N 42°25' E 009°55'1514.8
2016-Jun-22 22:33N 42°13' E 010°08'111 4.8
2016-Jun-21 23:33N 41°18' E 012°17'2417.4
2016-Jun-21 22:10N 40°57' E 012°34'3418.9
2016-Jun-21 20:22N 40°42' E 013°15'1619.2
2016-Jun-21 19:34N 40°39' E 013°35'1817.7
2016-Jun-21 18:33N 40°37' E 013°58'1717.0
2016-Jun-21 17:33N 40°47' E 014°16'  
Track history (hours):
 
Tides and Currents Weather Stations Pressure Air Temp Water Temp Dewpoint Dewpoint Depression Visibility Wind Speed Wind Dir Waves Ship Positions

Norwegian Epic

Last reported at 2016-Jul-01 13:33 UTC. Time now 2016-Jul-01 13:41 UTC.
Position N 43°32' E 007°01'.

Length 329 m; draft 9.2 m.

Type: Passenger vessel. MMSI: 311018500.

Date/timePositionNaut miles runAvg speedWind from/ knotsBaromVisibWave heightAir tempDewpointWater temp
2016-Jul-01 13:33N 43°32' E 007°01'0 0.2
2016-Jul-01 12:31N 43°32' E 007°01'1 0.6
2016-Jul-01 11:33N 43°33' E 007°01'0 0.1
2016-Jul-01 10:33N 43°33' E 007°01'1 0.6
2016-Jul-01 09:30N 43°32' E 007°01'0 0.1
2016-Jul-01 08:32N 43°32' E 007°01'0 0.1
2016-Jul-01 07:26N 43°32' E 007°01'0 0.1
2016-Jul-01 06:33N 43°32' E 007°01'0 0.1
2016-Jul-01 05:33N 43°32' E 007°01'5 5.4
2016-Jul-01 04:33N 43°28' E 007°05'1211.8
2016-Jul-01 03:33N 43°28' E 007°22'1312.5
2016-Jul-01 02:33N 43°29' E 007°39'2813.1
2016-Jul-01 00:23N 43°30' E 008°18'1113.3
2016-Jun-30 23:33N 43°31' E 008°33'1313.1
2016-Jun-30 22:33N 43°31' E 008°51'1312.9
2016-Jun-30 21:33N 43°31' E 009°09'1313.0
2016-Jun-30 20:33N 43°31' E 009°27'1312.7
2016-Jun-30 19:33N 43°31' E 009°44'1212.3
2016-Jun-30 18:34N 43°31' E 010°01'1111.4
2016-Jun-30 17:33N 43°32' E 010°17'1 1.4
2016-Jun-30 16:32N 43°34' E 010°18'0 0.0
2016-Jun-30 15:33N 43°34' E 010°18'0 0.0
2016-Jun-30 14:34N 43°34' E 010°18'0 0.0
2016-Jun-30 13:28N 43°34' E 010°18'0 0.0
2016-Jun-30 12:32N 43°34' E 010°18'0 0.0
2016-Jun-30 11:33N 43°34' E 010°18'0 0.0
2016-Jun-30 10:33N 43°34' E 010°18'0 0.0
2016-Jun-30 09:31N 43°34' E 010°18'0 0.0
2016-Jun-30 08:32N 43°34' E 010°18'0 0.0
2016-Jun-30 07:32N 43°34' E 010°18'0 0.0
2016-Jun-30 06:33N 43°34' E 010°18'0 0.0
2016-Jun-30 05:31N 43°34' E 010°18'1 0.7
2016-Jun-30 04:33N 43°33' E 010°17'7 7.4
2016-Jun-30 03:33N 43°27' E 010°12'1312.6
2016-Jun-30 02:33N 43°15' E 010°08'1312.9
2016-Jun-30 01:33N 43°02' E 010°03'1515.4
2016-Jun-30 00:33N 42°47' E 009°58'1716.0
2016-Jun-29 23:28N 42°30' E 009°55'2714.1
2016-Jun-29 21:33N 42°10' E 010°19'1816.2
2016-Jun-29 20:27N 42°03' E 010°42'1616.7
2016-Jun-29 19:31N 41°58' E 011°01'1616.6
2016-Jun-29 18:32N 42°01' E 011°23'1717.0
2016-Jun-29 17:33N 42°07' E 011°44'2 1.0
2016-Jun-29 15:26N 42°06' E 011°47'0 0.0
2016-Jun-29 14:30N 42°06' E 011°47'0 0.0
2016-Jun-29 13:24N 42°06' E 011°47'0 0.0
2016-Jun-29 11:11N 42°06' E 011°47'0 0.0
2016-Jun-29 10:32N 42°06' E 011°47'2 0.3
2016-Jun-29 03:07N 42°06' E 011°44'2414.5
2016-Jun-29 01:27N 41°44' E 011°57'5317.7
2016-Jun-28 22:26N 40°58' E 012°33'1517.3
2016-Jun-28 21:33N 40°48' E 012°48'1717.4
2016-Jun-28 20:34N 40°43' E 013°10'1817.4
2016-Jun-28 19:32N 40°40' E 013°33'1717.4
2016-Jun-28 18:34N 40°38' E 013°55'1716.8
2016-Jun-28 17:33N 40°47' E 014°15'4 3.6
2016-Jun-28 16:31N 40°50' E 014°16'0 0.0
2016-Jun-28 15:29N 40°50' E 014°16'0 0.0
2016-Jun-28 04:19N 40°50' E 014°16'6 7.4
2016-Jun-28 03:33N 40°45' E 014°13'1211.7
2016-Jun-28 02:33N 40°38' E 014°00'1512.5
2016-Jun-28 01:22N 40°39' E 013°41'1213.0
2016-Jun-28 00:29N 40°40' E 013°26'43216.0
2016-Jun-26 21:33N 41°16' E 003°56'1717.6
2016-Jun-26 20:33N 41°16' E 003°33'1717.2
2016-Jun-26 19:33N 41°16' E 003°10'1717.1
2016-Jun-26 18:33N 41°16' E 002°47'1717.0
2016-Jun-26 17:33N 41°16' E 002°25'1212.1
2016-Jun-26 16:33N 41°21' E 002°10'1 0.7
2016-Jun-26 14:25N 41°22' E 002°11'0 0.0
2016-Jun-26 11:27N 41°22' E 002°11'0 0.0
2016-Jun-26 10:27N 41°22' E 002°11'0 0.0
2016-Jun-26 09:22N 41°22' E 002°11'0 0.1
2016-Jun-26 08:33N 41°22' E 002°11'0 0.1
2016-Jun-26 07:33N 41°22' E 002°11'0 0.0
2016-Jun-26 06:33N 41°22' E 002°11'0 0.0
2016-Jun-26 05:31N 41°22' E 002°11'0 0.0
2016-Jun-26 04:31N 41°22' E 002°11'0 0.0
2016-Jun-26 03:33N 41°22' E 002°11'0 0.1
2016-Jun-26 02:33N 41°22' E 002°11'6 6.1
2016-Jun-26 01:33N 41°18' E 002°17'1515.1
2016-Jun-26 00:33N 41°25' E 002°35'1515.4
2016-Jun-25 23:33N 41°32' E 002°53'1716.6
2016-Jun-25 22:33N 41°42' E 003°11'1616.5
2016-Jun-25 21:33N 41°54' E 003°27'1817.0
2016-Jun-25 20:31N 42°06' E 003°43'118 5.4
2016-Jun-24 22:29N 42°49' E 006°12'1212.5
2016-Jun-24 21:33N 42°46' E 006°27'1111.4
2016-Jun-24 20:33N 42°50' E 006°42'1312.7
2016-Jun-24 19:33N 42°60' E 006°53'1212.2
2016-Jun-24 18:33N 43°10' E 007°00'1312.8
2016-Jun-24 17:34N 43°23' E 007°00'9 8.9
2016-Jun-24 16:33N 43°32' E 007°01'1 0.5
2016-Jun-24 15:31N 43°33' E 007°01'0 0.2
2016-Jun-24 14:33N 43°32' E 007°01'0 0.2
2016-Jun-24 13:33N 43°32' E 007°01'0 0.1
2016-Jun-24 12:31N 43°32' E 007°01'0 0.0
2016-Jun-24 11:32N 43°32' E 007°01'0 0.0
2016-Jun-24 10:29N 43°32' E 007°01'0 0.0
2016-Jun-24 09:33N 43°32' E 007°01'0 0.1
2016-Jun-24 08:29N 43°32' E 007°01'0 0.1
2016-Jun-24 07:31N 43°32' E 007°01'5 1.7
2016-Jun-24 04:34N 43°28' E 007°05'1111.3
2016-Jun-24 03:34N 43°28' E 007°20'1212.2
2016-Jun-24 02:33N 43°29' E 007°37'1212.1
2016-Jun-24 01:34N 43°29' E 007°54'1212.3
2016-Jun-24 00:34N 43°29' E 008°11'1212.2
2016-Jun-23 23:33N 43°30' E 008°28'1212.2
2016-Jun-23 22:34N 43°30' E 008°44'1212.3
2016-Jun-23 21:34N 43°30' E 009°01'1212.1
2016-Jun-23 20:34N 43°31' E 009°18'1313.4
2016-Jun-23 19:33N 43°31' E 009°36'1616.1
2016-Jun-23 18:33N 43°31' E 009°59'1313.2
2016-Jun-23 17:34N 43°32' E 010°17'1 1.1
2016-Jun-23 16:32N 43°33' E 010°18'0 0.0
2016-Jun-23 15:27N 43°33' E 010°18'0 0.0
2016-Jun-23 14:31N 43°33' E 010°18'0 0.0
2016-Jun-23 13:31N 43°33' E 010°18'0 0.0
2016-Jun-23 12:32N 43°33' E 010°18'0 0.0
2016-Jun-23 11:33N 43°33' E 010°18'0 0.0
2016-Jun-23 10:33N 43°33' E 010°18'0 0.0
2016-Jun-23 09:31N 43°33' E 010°18'0 0.0
2016-Jun-23 08:32N 43°33' E 010°18'0 0.0
2016-Jun-23 07:32N 43°33' E 010°18'0 0.0
2016-Jun-23 05:28N 43°33' E 010°18'0 0.2
2016-Jun-23 04:33N 43°33' E 010°17'9 9.1
2016-Jun-23 03:33N 43°25' E 010°12'1514.8
2016-Jun-23 02:33N 43°11' E 010°05'1615.7
2016-Jun-23 01:33N 42°56' E 010°00'1615.6
2016-Jun-23 00:33N 42°41' E 009°54'1616.2
2016-Jun-22 23:33N 42°25' E 009°55'1514.8
2016-Jun-22 22:33N 42°13' E 010°08'111 4.8
2016-Jun-21 23:33N 41°18' E 012°17'2417.4
2016-Jun-21 22:10N 40°57' E 012°34'3418.9
2016-Jun-21 20:22N 40°42' E 013°15'1619.2
2016-Jun-21 19:34N 40°39' E 013°35'1817.7
2016-Jun-21 18:33N 40°37' E 013°58'1717.0
2016-Jun-21 17:33N 40°47' E 014°16'  

Dump ship's entire track history